Henderson, New York
Current Conditions -  °F | °C
As of 10:56 PM on Sunday 25 Jan 2015 (Local Time) from KART Reporting Station
Clear Clear  
Wind Chill: -9°   Ceiling: Unl
Heat Index:   Visibility: 10mi
Dew Point: -7°   Wind: 7mph
Humidity: 63%   Direction: 80°E
Pressure: 30.1"   Gusts: NA
Location:  43.85°N, 76.18°W
Report Text: KART 260356Z AUTO 08006KT 10SM CLR M16/M22 A3010 RMK AO2 SLP206 T11611217
Loading
Personal Weather Stations






























Interactive Weather Map New forecast layout! Learn more

10-Day Weather Forecast

Advertisements
Track Severe Weather on mobile